createdAt,value
2018-10-03T00:04:58.337Z,1004.92
2018-10-03T00:10:58.143Z,1005.01
2018-10-03T00:11:59.563Z,1004.96
2018-10-03T00:13:58.250Z,1005.01
2018-10-03T00:16:58.402Z,1005.06
2018-10-03T00:17:58.936Z,1005.07
2018-10-03T00:18:58.128Z,1005.05
2018-10-03T00:19:58.268Z,1004.97
2018-10-03T00:20:58.294Z,1004.98
2018-10-03T00:22:00.471Z,1005.06
2018-10-03T00:22:58.137Z,1005.03
2018-10-03T00:24:57.977Z,1005.02
2018-10-03T00:26:58.257Z,1005.07
2018-10-03T00:28:04.369Z,1005.06
2018-10-03T00:28:58.129Z,1005.08
2018-10-03T00:29:57.819Z,1004.98
2018-10-03T00:30:57.793Z,1005.00
2018-10-03T00:31:57.785Z,1005.03
2018-10-03T00:32:57.779Z,1005.03
2018-10-03T00:33:57.747Z,1005.00
2018-10-03T00:34:58.062Z,1005.03
2018-10-03T00:35:57.646Z,1004.97
2018-10-03T00:36:57.797Z,1004.98
2018-10-03T00:37:57.601Z,1005.00
2018-10-03T00:38:57.590Z,1004.99
2018-10-03T00:39:59.780Z,1005.02
2018-10-03T00:40:57.900Z,1004.95
2018-10-03T00:41:57.617Z,1004.99
2018-10-03T00:43:57.614Z,1005.02
2018-10-03T00:44:57.473Z,1004.91
2018-10-03T00:45:57.502Z,1004.94
2018-10-03T00:46:59.788Z,1005.06
2018-10-03T00:47:57.465Z,1005.03
2018-10-03T00:48:57.431Z,1004.98
2018-10-03T00:49:57.681Z,1005.01
2018-10-03T00:50:57.416Z,1004.95
2018-10-03T00:51:57.342Z,1005.00
2018-10-03T00:52:57.998Z,1004.96
2018-10-03T00:53:58.043Z,1004.98
2018-10-03T00:54:57.284Z,1005.00
2018-10-03T00:55:57.568Z,1005.03
2018-10-03T00:56:57.312Z,1005.00
2018-10-03T00:57:57.229Z,1005.04
2018-10-03T00:58:57.504Z,1005.05
2018-10-03T00:59:57.185Z,1005.05
2018-10-03T01:00:57.164Z,1005.06
2018-10-03T01:01:57.144Z,1005.01
2018-10-03T01:02:57.211Z,1005.09
2018-10-03T01:03:57.156Z,1005.07
2018-10-03T01:04:57.437Z,1005.06
2018-10-03T01:05:57.069Z,1005.17
2018-10-03T01:06:58.572Z,1005.08
2018-10-03T01:07:57.418Z,1005.20
2018-10-03T01:08:57.152Z,1005.25
2018-10-03T01:09:57.130Z,1005.17
2018-10-03T01:10:57.620Z,1005.24
2018-10-03T01:11:57.432Z,1005.28
2018-10-03T01:12:56.928Z,1005.29
2018-10-03T01:13:57.140Z,1005.36
2018-10-03T01:14:56.991Z,1005.30
2018-10-03T01:15:56.877Z,1005.30
2018-10-03T01:16:57.387Z,1005.26
2018-10-03T01:17:56.836Z,1005.30
2018-10-03T01:18:57.365Z,1005.36
2018-10-03T01:19:56.861Z,1005.42
2018-10-03T01:20:56.839Z,1005.34
2018-10-03T01:21:56.809Z,1005.33
2018-10-03T01:22:56.734Z,1005.34
2018-10-03T01:23:56.712Z,1005.48
2018-10-03T01:24:56.706Z,1005.41
2018-10-03T01:25:57.282Z,1005.39
2018-10-03T01:26:56.677Z,1005.16
2018-10-03T01:27:56.641Z,1005.31
2018-10-03T01:28:56.624Z,1005.42
2018-10-03T01:29:56.607Z,1005.35
2018-10-03T01:30:56.584Z,1005.25
2018-10-03T01:31:56.611Z,1005.24
2018-10-03T01:32:56.896Z,1005.18
2018-10-03T01:33:56.524Z,1005.20
2018-10-03T01:34:56.558Z,1005.17
2018-10-03T01:35:56.545Z,1005.13
2018-10-03T01:36:56.474Z,1005.22
2018-10-03T01:37:56.455Z,1005.22
2018-10-03T01:38:56.937Z,1005.18
2018-10-03T01:39:56.889Z,1005.31
2018-10-03T01:40:56.386Z,1005.22
2018-10-03T01:41:56.671Z,1005.17
2018-10-03T01:42:56.355Z,1005.25
2018-10-03T01:43:56.472Z,1005.16
2018-10-03T01:44:56.358Z,1005.26
2018-10-03T01:45:56.379Z,1005.20
2018-10-03T01:46:56.620Z,1005.30
2018-10-03T01:47:56.556Z,1005.33
2018-10-03T01:48:56.233Z,1005.27
2018-10-03T01:49:56.260Z,1005.35
2018-10-03T01:50:56.190Z,1005.28
2018-10-03T01:51:56.172Z,1005.30
2018-10-03T01:55:56.099Z,1005.35
2018-10-03T01:56:56.083Z,1005.43
2018-10-03T01:57:56.105Z,1005.47
2018-10-03T01:58:56.094Z,1005.59
2018-10-03T01:59:56.373Z,1005.44
2018-10-03T02:00:56.001Z,1005.57
2018-10-03T02:01:55.988Z,1005.40
2018-10-03T02:02:56.018Z,1005.54
2018-10-03T02:03:55.941Z,1005.58
2018-10-03T02:04:55.980Z,1005.55
2018-10-03T02:05:56.251Z,1005.51
2018-10-03T02:06:55.889Z,1005.55
2018-10-03T02:07:55.870Z,1005.57
2018-10-03T02:08:55.903Z,1005.53
2018-10-03T02:09:55.831Z,1005.57
2018-10-03T02:10:55.812Z,1005.60
2018-10-03T02:11:56.179Z,1005.62
2018-10-03T02:12:55.824Z,1005.76
2018-10-03T02:13:55.807Z,1005.87
2018-10-03T02:14:55.741Z,1005.78
2018-10-03T02:15:55.713Z,1005.84
2018-10-03T02:16:56.963Z,1005.81
2018-10-03T02:17:56.029Z,1005.89
2018-10-03T02:18:55.668Z,1005.74
2018-10-03T02:19:55.682Z,1005.79
2018-10-03T02:20:55.686Z,1005.78
2018-10-03T02:21:55.602Z,1005.87
2018-10-03T02:22:55.696Z,1005.97
2018-10-03T02:23:56.041Z,1005.93
2018-10-03T02:24:55.587Z,1005.89
2018-10-03T02:25:55.576Z,1005.96
2018-10-03T02:26:55.944Z,1005.87
2018-10-03T02:27:55.485Z,1005.96
2018-10-03T02:28:55.598Z,1005.96
2018-10-03T02:29:55.991Z,1006.00
2018-10-03T02:30:55.493Z,1006.15
2018-10-03T02:31:55.406Z,1005.96
2018-10-03T02:32:55.399Z,1006.02
2018-10-03T02:33:55.419Z,1006.01
2018-10-03T02:35:55.439Z,1006.11
2018-10-03T02:36:55.814Z,1006.03
2018-10-03T02:37:55.338Z,1006.05
2018-10-03T02:38:55.369Z,1006.09
2018-10-03T02:39:55.252Z,1006.11
2018-10-03T02:40:55.243Z,1006.14
2018-10-03T02:41:55.288Z,1005.96
2018-10-03T02:42:55.265Z,1006.01
2018-10-03T02:43:56.600Z,1005.94
2018-10-03T02:44:55.203Z,1005.90
2018-10-03T02:45:55.251Z,1005.92
2018-10-03T02:46:55.164Z,1005.97
2018-10-03T02:47:55.159Z,1005.87
2018-10-03T02:48:55.201Z,1005.86
2018-10-03T02:49:55.061Z,1005.87
2018-10-03T02:50:55.420Z,1005.89
2018-10-03T02:51:55.076Z,1005.91
2018-10-03T02:52:55.052Z,1005.88
2018-10-03T02:53:55.123Z,1005.88
2018-10-03T02:54:55.167Z,1005.92
2018-10-03T02:55:55.114Z,1005.89
2018-10-03T02:56:54.920Z,1005.90
2018-10-03T02:57:55.257Z,1005.85
2018-10-03T02:58:54.982Z,1005.90
2018-10-03T02:59:54.918Z,1006.06
2018-10-03T03:00:54.843Z,1005.97
2018-10-03T03:02:55.107Z,1005.95
2018-10-03T03:03:54.842Z,1006.05
2018-10-03T03:04:55.595Z,1006.03
2018-10-03T03:05:54.754Z,1006.00
2018-10-03T03:06:54.729Z,1005.96
2018-10-03T03:07:54.723Z,1005.97
2018-10-03T03:08:54.803Z,1006.09
2018-10-03T03:09:54.674Z,1005.98
2018-10-03T03:10:54.651Z,1005.99
2018-10-03T03:11:55.007Z,1006.02
2018-10-03T03:12:54.685Z,1006.02
2018-10-03T03:13:54.595Z,1006.08
2018-10-03T03:15:54.651Z,1006.06
2018-10-03T03:16:54.536Z,1006.08
2018-10-03T03:17:54.515Z,1006.03
2018-10-03T03:18:54.873Z,1006.02
2018-10-03T03:19:54.560Z,1005.96
2018-10-03T03:20:54.771Z,1006.02
2018-10-03T03:21:54.519Z,1006.00
2018-10-03T03:22:54.508Z,1006.12
2018-10-03T03:23:54.477Z,1006.13
2018-10-03T03:24:54.726Z,1006.12
2018-10-03T03:25:54.460Z,1006.22
2018-10-03T03:26:54.413Z,1006.14
2018-10-03T03:27:54.326Z,1006.21
2018-10-03T03:28:54.460Z,1006.19
2018-10-03T03:29:54.278Z,1006.25
2018-10-03T03:30:54.614Z,1006.26
2018-10-03T03:31:54.294Z,1006.22
2018-10-03T03:32:54.298Z,1006.13
2018-10-03T03:33:54.194Z,1006.26
2018-10-03T03:34:54.185Z,1006.29
2018-10-03T03:35:54.164Z,1006.27
2018-10-03T03:36:54.522Z,1006.37
2018-10-03T03:37:54.423Z,1006.29
2018-10-03T03:38:54.108Z,1006.34
2018-10-03T03:39:54.085Z,1006.29
2018-10-03T03:40:54.065Z,1006.33
2018-10-03T03:41:54.052Z,1006.26
2018-10-03T03:42:54.380Z,1006.32
2018-10-03T03:43:54.055Z,1006.34
2018-10-03T03:44:53.994Z,1006.39
2018-10-03T03:46:53.945Z,1006.44
2018-10-03T03:47:53.932Z,1006.37
2018-10-03T03:48:54.257Z,1006.38
2018-10-03T03:49:53.944Z,1006.41
2018-10-03T03:50:53.862Z,1006.50
2018-10-03T03:51:53.896Z,1006.53
2018-10-03T03:52:53.873Z,1006.50
2018-10-03T03:53:53.873Z,1006.51
2018-10-03T03:54:54.088Z,1006.57
2018-10-03T03:55:54.094Z,1006.55
2018-10-03T03:56:53.808Z,1006.62
2018-10-03T03:57:53.799Z,1006.64
2018-10-03T03:58:53.911Z,1006.66
2018-10-03T03:59:53.808Z,1006.58
2018-10-03T04:00:53.785Z,1006.62
2018-10-03T04:01:54.380Z,1006.56
2018-10-03T04:03:53.932Z,1006.57
2018-10-03T04:05:53.620Z,1006.60
2018-10-03T04:06:53.694Z,1006.46
2018-10-03T04:07:53.613Z,1006.54
2018-10-03T04:08:53.858Z,1006.51
2018-10-03T04:09:53.491Z,1006.50
2018-10-03T04:10:53.470Z,1006.43
2018-10-03T04:11:53.504Z,1006.52
2018-10-03T04:12:53.482Z,1006.42
2018-10-03T04:13:53.775Z,1006.50
2018-10-03T04:14:53.460Z,1006.49
2018-10-03T04:15:53.846Z,1006.48
2018-10-03T04:16:53.525Z,1006.52
2018-10-03T04:17:53.410Z,1006.55
2018-10-03T04:19:53.372Z,1006.60
2018-10-03T04:20:53.349Z,1006.62
2018-10-03T04:21:53.327Z,1006.64
2018-10-03T04:22:53.667Z,1006.65
2018-10-03T04:23:53.390Z,1006.56
2018-10-03T04:24:53.196Z,1006.72
2018-10-03T04:25:53.228Z,1006.61
2018-10-03T04:26:53.166Z,1006.70
2018-10-03T04:27:53.134Z,1006.71
2018-10-03T04:28:53.170Z,1006.61
2018-10-03T04:29:53.457Z,1006.65
2018-10-03T04:30:53.130Z,1006.76
2018-10-03T04:31:53.070Z,1006.62
2018-10-03T04:32:53.095Z,1006.70
2018-10-03T04:33:53.369Z,1006.75
2018-10-03T04:34:53.006Z,1006.76
2018-10-03T04:35:52.986Z,1006.81
2018-10-03T04:36:53.325Z,1006.79
2018-10-03T04:37:53.028Z,1006.81
2018-10-03T04:39:52.964Z,1006.95
2018-10-03T04:40:52.987Z,1006.95
2018-10-03T04:41:52.929Z,1007.03
2018-10-03T04:42:52.913Z,1007.12
2018-10-03T04:43:53.180Z,1006.90
2018-10-03T04:44:52.808Z,1007.08
2018-10-03T04:45:52.827Z,1007.01
2018-10-03T04:46:52.774Z,1007.08
2018-10-03T04:47:53.052Z,1007.10
2018-10-03T04:48:52.800Z,1007.08
2018-10-03T04:49:53.058Z,1007.06
2018-10-03T04:50:52.695Z,1006.99
2018-10-03T04:51:52.694Z,1007.03
2018-10-03T04:52:52.653Z,1007.06
2018-10-03T04:53:52.691Z,1007.06
2018-10-03T04:54:52.618Z,1007.12
2018-10-03T04:55:52.965Z,1007.00
2018-10-03T04:56:52.653Z,1007.01
2018-10-03T04:57:52.613Z,1007.11
2018-10-03T04:58:52.589Z,1006.98
2018-10-03T04:59:52.604Z,1007.00
2018-10-03T05:00:52.555Z,1007.01
2018-10-03T05:01:52.832Z,1007.02
2018-10-03T05:02:52.461Z,1007.03
2018-10-03T05:03:52.445Z,1007.05
2018-10-03T05:04:52.425Z,1007.12
2018-10-03T05:05:52.406Z,1007.11
2018-10-03T05:06:52.457Z,1007.10
2018-10-03T05:07:52.747Z,1007.09
2018-10-03T05:08:52.397Z,1007.02
2018-10-03T05:09:52.327Z,1007.12
2018-10-03T05:10:52.325Z,1007.05
2018-10-03T05:11:52.294Z,1007.29
2018-10-03T05:12:52.269Z,1007.15
2018-10-03T05:13:52.605Z,1007.05
2018-10-03T05:14:52.537Z,1007.18
2018-10-03T05:15:52.216Z,1007.10
2018-10-03T05:16:52.199Z,1007.18
2018-10-03T05:17:52.236Z,1007.07
2018-10-03T05:18:52.163Z,1007.20
2018-10-03T05:19:52.483Z,1007.07
2018-10-03T05:20:52.162Z,1007.25
2018-10-03T05:21:52.094Z,1007.19
2018-10-03T05:22:52.122Z,1007.23
2018-10-03T05:23:52.136Z,1007.27
2018-10-03T05:24:52.088Z,1007.25
2018-10-03T05:25:52.025Z,1007.65
2018-10-03T05:26:52.542Z,1007.26
2018-10-03T05:27:52.076Z,1007.32
2018-10-03T05:28:52.056Z,1007.36
2018-10-03T05:29:52.205Z,1007.28
2018-10-03T05:30:51.987Z,1007.25
2018-10-03T05:31:52.035Z,1007.23
2018-10-03T05:32:51.973Z,1007.18
2018-10-03T05:33:52.245Z,1007.25
2018-10-03T05:34:51.901Z,1007.22
2018-10-03T05:35:51.962Z,1007.26
2018-10-03T05:36:51.819Z,1007.25
2018-10-03T05:37:51.805Z,1007.42
2018-10-03T05:38:51.817Z,1007.40
2018-10-03T05:39:51.897Z,1007.51
2018-10-03T05:40:52.322Z,1007.51
2018-10-03T05:41:51.842Z,1007.53
2018-10-03T05:42:51.763Z,1007.58
2018-10-03T05:43:51.672Z,1007.57
2018-10-03T05:44:51.707Z,1007.52
2018-10-03T05:45:51.688Z,1007.60
2018-10-03T05:46:51.616Z,1007.61
2018-10-03T05:47:51.976Z,1007.58
2018-10-03T05:48:51.868Z,1007.48
2018-10-03T05:49:51.625Z,1007.48
2018-10-03T05:50:51.592Z,1007.43
2018-10-03T05:51:51.537Z,1007.46
2018-10-03T05:53:51.816Z,1007.53
2018-10-03T05:54:51.972Z,1007.58
2018-10-03T05:55:51.490Z,1007.68
2018-10-03T05:56:51.746Z,1007.63
2018-10-03T05:57:51.451Z,1007.69
2018-10-03T05:58:51.586Z,1007.68
2018-10-03T05:59:51.472Z,1007.62
2018-10-03T06:00:51.351Z,1007.65
2018-10-03T06:01:51.668Z,1007.71
2018-10-03T06:02:51.383Z,1007.70
2018-10-03T06:03:51.360Z,1007.64
2018-10-03T06:04:51.807Z,1007.69
2018-10-03T06:05:51.295Z,1007.72
2018-10-03T06:06:51.229Z,1007.72
2018-10-03T06:07:51.257Z,1007.78
2018-10-03T06:08:51.517Z,1007.83
2018-10-03T06:09:51.176Z,1007.87
2018-10-03T06:10:51.743Z,1007.86
2018-10-03T06:11:51.186Z,1007.78
2018-10-03T06:12:51.172Z,1007.85
2018-10-03T06:13:51.286Z,1007.84
2018-10-03T06:14:51.625Z,1007.92
2018-10-03T06:15:51.060Z,1007.84
2018-10-03T06:16:51.151Z,1008.00
2018-10-03T06:17:51.010Z,1008.00
2018-10-03T06:18:51.117Z,1008.07
2018-10-03T06:19:51.049Z,1008.07
2018-10-03T06:20:51.362Z,1008.12
2018-10-03T06:22:50.967Z,1008.33
2018-10-03T06:23:51.019Z,1008.22
2018-10-03T06:25:50.878Z,1008.29
2018-10-03T06:26:50.881Z,1008.29
2018-10-03T06:27:51.215Z,1008.45
2018-10-03T06:28:50.848Z,1008.44
2018-10-03T06:29:50.923Z,1008.42
2018-10-03T06:30:50.835Z,1008.40
2018-10-03T06:31:51.384Z,1008.44
2018-10-03T06:32:50.772Z,1008.49
2018-10-03T06:33:51.006Z,1008.46
2018-10-03T06:34:50.740Z,1008.75
2018-10-03T06:35:50.664Z,1008.58
2018-10-03T06:36:50.636Z,1008.58
2018-10-03T06:37:50.696Z,1008.62
2018-10-03T06:38:50.753Z,1008.69
2018-10-03T06:39:51.009Z,1008.66
2018-10-03T06:40:50.627Z,1008.63
2018-10-03T06:41:50.562Z,1008.57
2018-10-03T06:43:50.504Z,1008.69
2018-10-03T06:44:50.490Z,1008.69
2018-10-03T06:45:50.839Z,1008.76
2018-10-03T06:46:50.527Z,1008.81
2018-10-03T06:49:50.383Z,1008.82
2018-10-03T06:50:50.758Z,1008.93
2018-10-03T06:51:51.399Z,1008.99
2018-10-03T06:52:50.511Z,1009.04
2018-10-03T06:53:50.323Z,1009.01
2018-10-03T06:54:50.345Z,1008.97
2018-10-03T06:55:50.358Z,1009.09
2018-10-03T06:56:50.434Z,1009.14
2018-10-03T06:57:50.744Z,1009.14
2018-10-03T06:58:50.314Z,1009.16
2018-10-03T06:59:50.256Z,1009.16
2018-10-03T07:00:50.219Z,1009.22
2018-10-03T07:01:50.195Z,1009.21
2018-10-03T07:02:50.359Z,1009.21
2018-10-03T07:03:50.245Z,1009.18
2018-10-03T07:04:51.468Z,1009.25
2018-10-03T07:05:50.161Z,1009.26
2018-10-03T07:06:50.115Z,1009.28
2018-10-03T07:07:50.114Z,1009.34
2018-10-03T07:08:50.085Z,1009.28
2018-10-03T07:09:50.053Z,1009.30
2018-10-03T07:10:50.027Z,1009.34
2018-10-03T07:11:50.313Z,1009.45
2018-10-03T07:12:49.940Z,1009.48
2018-10-03T07:13:50.005Z,1009.51
2018-10-03T07:14:49.898Z,1009.55
2018-10-03T07:15:50.012Z,1009.50
2018-10-03T07:16:49.936Z,1009.45
2018-10-03T07:17:50.189Z,1009.52
2018-10-03T07:18:50.347Z,1009.55
2018-10-03T07:19:49.926Z,1009.60
2018-10-03T07:20:49.796Z,1009.59
2018-10-03T07:21:50.555Z,1009.64
2018-10-03T07:22:49.740Z,1009.65
2018-10-03T07:23:49.783Z,1009.67
2018-10-03T07:24:49.804Z,1009.62
2018-10-03T07:25:50.034Z,1009.66
2018-10-03T07:26:49.732Z,1009.70
2018-10-03T07:27:50.213Z,1009.69
2018-10-03T07:28:49.929Z,1009.75
2018-10-03T07:29:49.611Z,1009.75
2018-10-03T07:30:49.587Z,1009.77
2018-10-03T07:31:49.636Z,1009.78
2018-10-03T07:32:50.209Z,1009.79
2018-10-03T07:33:49.532Z,1009.76
2018-10-03T07:34:49.799Z,1009.82
2018-10-03T07:35:49.484Z,1009.84
2018-10-03T07:36:49.463Z,1009.84
2018-10-03T07:37:49.556Z,1009.87
2018-10-03T07:38:49.443Z,1009.91
2018-10-03T07:39:49.779Z,1009.91
2018-10-03T07:40:49.433Z,1009.91
2018-10-03T07:41:49.443Z,1009.91
2018-10-03T07:42:49.357Z,1009.96
2018-10-03T07:43:49.333Z,1009.94
2018-10-03T07:44:49.365Z,1010.00
2018-10-03T07:45:49.654Z,1009.99
2018-10-03T07:46:49.329Z,1010.01
2018-10-03T07:47:49.258Z,1010.03
2018-10-03T07:48:49.232Z,1009.99
2018-10-03T07:49:49.212Z,1010.03
2018-10-03T07:50:49.199Z,1010.01
2018-10-03T07:51:49.526Z,1009.93
2018-10-03T07:52:49.154Z,1010.06
2018-10-03T07:53:49.187Z,1010.14
2018-10-03T07:54:49.171Z,1010.17
2018-10-03T07:55:49.172Z,1010.17
2018-10-03T07:56:49.172Z,1010.19
2018-10-03T07:57:49.385Z,1010.18
2018-10-03T07:58:49.169Z,1010.19
2018-10-03T07:59:49.035Z,1010.18
2018-10-03T08:00:49.005Z,1010.08
2018-10-03T08:01:48.987Z,1010.12
2018-10-03T08:02:49.074Z,1010.19
2018-10-03T08:03:49.582Z,1010.18
2018-10-03T08:04:49.072Z,1010.12
2018-10-03T08:05:49.070Z,1010.22
2018-10-03T08:06:48.955Z,1010.27
2018-10-03T08:07:49.016Z,1010.38
2018-10-03T08:08:48.994Z,1010.32
2018-10-03T08:09:49.336Z,1010.39
2018-10-03T08:10:48.955Z,1010.32
2018-10-03T08:11:49.373Z,1010.35
2018-10-03T08:12:48.934Z,1010.44
2018-10-03T08:13:48.905Z,1010.32
2018-10-03T08:14:48.891Z,1010.47
2018-10-03T08:15:49.248Z,1010.57
2018-10-03T08:16:48.904Z,1010.48
2018-10-03T08:18:48.819Z,1010.47
2018-10-03T08:19:48.719Z,1010.56
2018-10-03T08:20:48.650Z,1010.61
2018-10-03T08:21:48.861Z,1010.58
2018-10-03T08:22:49.212Z,1010.84
2018-10-03T08:23:49.119Z,1011.01
2018-10-03T08:24:48.566Z,1011.06
2018-10-03T08:25:48.549Z,1010.78
2018-10-03T08:26:48.547Z,1010.71
2018-10-03T08:27:48.515Z,1010.68
2018-10-03T08:28:48.556Z,1010.70
2018-10-03T08:29:48.835Z,1010.70
2018-10-03T08:30:48.515Z,1010.67
2018-10-03T08:31:48.471Z,1010.73
2018-10-03T08:32:48.665Z,1010.71
2018-10-03T08:33:48.466Z,1010.70
2018-10-03T08:34:48.395Z,1010.84
2018-10-03T08:35:48.383Z,1010.80
2018-10-03T08:36:48.859Z,1010.86
2018-10-03T08:37:48.488Z,1010.89
2018-10-03T08:38:48.563Z,1010.84
2018-10-03T08:39:48.310Z,1010.88
2018-10-03T08:40:48.347Z,1010.89
2018-10-03T08:41:48.272Z,1011.00
2018-10-03T08:42:48.285Z,1011.02
2018-10-03T08:43:48.560Z,1010.98
2018-10-03T08:44:48.273Z,1010.98
2018-10-03T08:45:48.207Z,1011.08
2018-10-03T08:46:48.253Z,1011.18
2018-10-03T08:47:48.286Z,1011.11
2018-10-03T08:48:48.201Z,1011.12
2018-10-03T08:49:48.130Z,1011.17
2018-10-03T08:50:48.549Z,1011.10
2018-10-03T08:51:48.252Z,1011.16
2018-10-03T08:52:48.216Z,1011.20
2018-10-03T08:53:48.212Z,1011.22
2018-10-03T08:54:48.178Z,1011.30
2018-10-03T08:55:48.035Z,1011.27
2018-10-03T08:56:48.214Z,1011.32
2018-10-03T08:57:48.494Z,1011.38
2018-10-03T08:58:48.099Z,1011.32
2018-10-03T08:59:48.086Z,1011.37
2018-10-03T09:00:48.125Z,1011.47
2018-10-03T09:01:48.149Z,1011.56
2018-10-03T09:02:48.037Z,1011.63
2018-10-03T09:03:48.019Z,1011.84
2018-10-03T09:04:48.245Z,1011.62
2018-10-03T09:05:47.838Z,1011.62
2018-10-03T09:06:47.872Z,1011.55
2018-10-03T09:07:47.803Z,1011.58
2018-10-03T09:08:47.787Z,1011.68
2018-10-03T09:09:47.769Z,1011.83
2018-10-03T09:10:48.102Z,1011.86
2018-10-03T09:11:47.973Z,1011.82
2018-10-03T09:12:47.946Z,1011.75
2018-10-03T09:13:47.714Z,1011.77
2018-10-03T09:14:47.768Z,1011.76
2018-10-03T09:15:47.707Z,1011.84
2018-10-03T09:16:48.065Z,1011.89
2018-10-03T09:17:47.618Z,1011.90
2018-10-03T09:18:47.628Z,1011.96
2018-10-03T09:19:47.791Z,1012.46
2018-10-03T09:20:47.574Z,1012.09
2018-10-03T09:21:47.686Z,1012.32
2018-10-03T09:22:47.912Z,1011.90
2018-10-03T09:23:47.649Z,1012.03
2018-10-03T09:24:47.702Z,1011.98
2018-10-03T09:25:47.692Z,1012.90
2018-10-03T09:26:47.469Z,1012.55
2018-10-03T09:27:47.577Z,1013.04
2018-10-03T09:28:47.807Z,1012.15
2018-10-03T09:31:47.393Z,1012.77
2018-10-03T09:32:47.462Z,1012.10
2018-10-03T09:33:47.406Z,1012.44
2018-10-03T09:34:47.639Z,1012.91
2018-10-03T09:36:47.541Z,1012.86
2018-10-03T09:37:47.496Z,1013.16
2018-10-03T09:38:47.285Z,1012.34
2018-10-03T09:39:47.402Z,1012.78
2018-10-03T09:40:47.597Z,1012.82
2018-10-03T09:41:47.529Z,1012.68
2018-10-03T09:42:47.332Z,1012.40
2018-10-03T09:43:47.350Z,1012.12
2018-10-03T09:44:47.178Z,1012.26
2018-10-03T09:45:48.216Z,1012.40
2018-10-03T09:46:47.500Z,1012.38
2018-10-03T09:47:47.151Z,1012.69
2018-10-03T09:48:47.127Z,1013.01
2018-10-03T09:49:47.162Z,1012.43
2018-10-03T09:50:47.093Z,1012.67
2018-10-03T09:51:47.085Z,1012.56
2018-10-03T09:52:47.112Z,1012.50
2018-10-03T09:53:47.364Z,1012.36
2018-10-03T09:54:47.047Z,1012.28
2018-10-03T09:55:47.081Z,1012.29
2018-10-03T09:56:47.193Z,1012.36
2018-10-03T09:57:46.991Z,1012.33
2018-10-03T09:58:46.979Z,1012.30
2018-10-03T09:59:46.961Z,1012.34
2018-10-03T10:00:47.367Z,1012.64
2018-10-03T10:01:46.942Z,1012.32
2018-10-03T10:02:46.915Z,1012.47
2018-10-03T10:03:46.930Z,1012.37
2018-10-03T10:04:46.937Z,1012.34
2018-10-03T10:05:46.874Z,1012.35
2018-10-03T10:06:46.973Z,1012.45
2018-10-03T10:07:47.264Z,1012.40
2018-10-03T10:08:47.769Z,1012.38
2018-10-03T10:09:47.994Z,1012.49
2018-10-03T10:10:46.895Z,1012.47
2018-10-03T10:11:46.953Z,1012.53
2018-10-03T10:12:46.795Z,1012.54
2018-10-03T10:13:46.881Z,1012.50
2018-10-03T10:14:47.354Z,1012.49
2018-10-03T10:15:46.951Z,1012.55
2018-10-03T10:17:46.892Z,1012.54
2018-10-03T10:18:46.926Z,1012.53
2018-10-03T10:19:46.862Z,1012.52
2018-10-03T10:20:47.028Z,1012.52
2018-10-03T10:21:46.926Z,1012.91
2018-10-03T10:22:46.617Z,1013.56
2018-10-03T10:23:46.595Z,1013.21
2018-10-03T10:24:46.572Z,1013.51
2018-10-03T10:25:46.552Z,1013.46
2018-10-03T10:26:46.986Z,1013.55
2018-10-03T10:27:46.824Z,1013.52
2018-10-03T10:28:47.700Z,1013.49
2018-10-03T10:29:46.503Z,1013.51
2018-10-03T10:30:46.619Z,1013.52
2018-10-03T10:31:46.709Z,1013.49
2018-10-03T10:32:46.547Z,1013.50
2018-10-03T10:33:46.442Z,1013.36
2018-10-03T10:34:46.421Z,1013.54
2018-10-03T10:35:46.765Z,1012.83
2018-10-03T10:36:46.525Z,1012.83
2018-10-03T10:37:46.414Z,1012.79
2018-10-03T10:38:46.505Z,1012.70
2018-10-03T10:39:46.411Z,1012.82
2018-10-03T10:40:47.182Z,1012.81
2018-10-03T10:41:46.720Z,1012.78
2018-10-03T10:42:46.419Z,1012.74
2018-10-03T10:43:46.306Z,1012.67
2018-10-03T10:44:46.343Z,1012.78
2018-10-03T10:45:46.274Z,1012.91
2018-10-03T10:46:46.323Z,1013.55
2018-10-03T10:47:46.548Z,1013.01
2018-10-03T10:48:46.239Z,1012.88
2018-10-03T10:49:46.237Z,1012.97
2018-10-03T10:50:46.209Z,1013.10
2018-10-03T10:51:46.721Z,1013.05
2018-10-03T10:52:46.233Z,1012.86
2018-10-03T10:53:46.518Z,1012.93
2018-10-03T10:54:46.155Z,1012.88
2018-10-03T10:55:46.154Z,1012.96
2018-10-03T10:56:46.130Z,1012.99
2018-10-03T10:57:46.121Z,1013.00
2018-10-03T10:58:46.274Z,1013.00
2018-10-03T10:59:46.473Z,1013.11
2018-10-03T11:01:46.071Z,1012.95
2018-10-03T11:03:46.024Z,1013.02
2018-10-03T11:04:46.007Z,1013.15
2018-10-03T11:05:46.349Z,1013.11
2018-10-03T11:06:46.672Z,1013.20
2018-10-03T11:07:46.101Z,1013.04
2018-10-03T11:08:45.952Z,1013.14
2018-10-03T11:09:45.984Z,1013.22
2018-10-03T11:10:45.928Z,1013.37
2018-10-03T11:11:46.268Z,1014.05
2018-10-03T11:12:45.910Z,1014.08
2018-10-03T11:13:45.886Z,1014.06
2018-10-03T11:14:45.864Z,1013.99
2018-10-03T11:15:45.851Z,1014.10
2018-10-03T11:16:45.891Z,1013.95
2018-10-03T11:17:46.301Z,1013.63
2018-10-03T11:18:45.813Z,1013.39
2018-10-03T11:19:45.794Z,1013.36
2018-10-03T11:20:45.844Z,1014.03
2018-10-03T11:21:45.842Z,1014.12
2018-10-03T11:22:45.853Z,1014.18
2018-10-03T11:23:45.980Z,1014.16
2018-10-03T11:24:46.211Z,1014.25
2018-10-03T11:25:45.902Z,1014.25
2018-10-03T11:26:45.893Z,1014.13
2018-10-03T11:27:45.734Z,1014.19
2018-10-03T11:28:48.643Z,1014.20
2018-10-03T11:29:45.696Z,1014.19
2018-10-03T11:30:45.699Z,1014.15
2018-10-03T11:31:46.292Z,1014.28
2018-10-03T11:32:45.895Z,1014.20
2018-10-03T11:33:45.639Z,1014.29
2018-10-03T11:34:45.603Z,1014.14
2018-10-03T11:35:45.591Z,1014.44
2018-10-03T11:36:45.769Z,1014.44
2018-10-03T11:37:45.883Z,1014.44
2018-10-03T11:38:46.093Z,1014.52
2018-10-03T11:39:45.676Z,1014.53
2018-10-03T11:40:45.547Z,1014.44
2018-10-03T11:41:46.064Z,1014.43
2018-10-03T11:42:45.903Z,1013.88
2018-10-03T11:43:45.835Z,1013.76
2018-10-03T11:54:45.422Z,1013.66
2018-10-03T11:55:45.432Z,1013.73
2018-10-03T11:56:45.362Z,1013.81
2018-10-03T11:58:45.402Z,1013.75
2018-10-03T12:00:45.646Z,1013.77
2018-10-03T12:01:45.371Z,1013.86
2018-10-03T12:02:45.379Z,1013.85
2018-10-03T12:03:45.798Z,1013.77
2018-10-03T12:04:45.318Z,1013.81
2018-10-03T12:07:46.870Z,1013.81
2018-10-03T12:09:45.187Z,1014.00
2018-10-03T12:10:45.194Z,1014.19
2018-10-03T12:11:45.407Z,1014.07
2018-10-03T12:15:45.175Z,1014.68
2018-10-03T12:23:45.038Z,1014.94
2018-10-03T12:26:45.491Z,1014.87
2018-10-03T12:38:44.811Z,1015.05
2018-10-03T12:39:45.170Z,1014.94
2018-10-03T12:40:44.780Z,1014.87
2018-10-03T12:42:45.283Z,1014.56
2018-10-03T12:43:44.914Z,1014.96
2018-10-03T12:44:44.784Z,1014.87
2018-10-03T12:45:45.077Z,1014.96
2018-10-03T12:46:44.711Z,1014.96
2018-10-03T12:47:44.696Z,1015.07
2018-10-03T12:48:44.760Z,1015.10
2018-10-03T12:49:44.678Z,1014.90
2018-10-03T12:50:44.755Z,1014.56
2018-10-03T12:51:45.065Z,1015.24
2018-10-03T12:52:44.655Z,1015.27
2018-10-03T12:53:44.921Z,1015.20
2018-10-03T12:54:44.785Z,1014.75
2018-10-03T12:55:44.612Z,1014.44
2018-10-03T12:56:44.605Z,1014.33
2018-10-03T12:57:44.909Z,1014.23
2018-10-03T12:58:44.650Z,1014.23
2018-10-03T12:59:44.955Z,1014.23
2018-10-03T13:00:44.571Z,1014.12
2018-10-03T13:01:44.560Z,1014.30
2018-10-03T13:02:44.805Z,1014.40
2018-10-03T13:03:44.826Z,1014.23
2018-10-03T13:05:44.552Z,1014.33
2018-10-03T13:06:44.496Z,1014.40
2018-10-03T13:07:44.481Z,1014.39
2018-10-03T13:08:44.631Z,1014.30
2018-10-03T13:09:44.457Z,1014.28
2018-10-03T13:10:45.436Z,1014.40
2018-10-03T13:11:45.251Z,1014.28
2018-10-03T13:12:44.625Z,1014.30
2018-10-03T13:13:45.406Z,1014.33
2018-10-03T13:14:44.395Z,1014.34
2018-10-03T13:16:45.732Z,1015.15
2018-10-03T13:17:44.469Z,1015.20
2018-10-03T13:18:44.558Z,1015.27
2018-10-03T13:19:44.458Z,1015.16
2018-10-03T13:20:44.458Z,1015.23
2018-10-03T13:21:44.499Z,1015.18
2018-10-03T13:22:44.693Z,1015.12
2018-10-03T13:23:44.347Z,1015.12
2018-10-03T13:24:44.263Z,1015.13
2018-10-03T13:25:44.830Z,1014.93